createdAt,value
2018-03-21T00:01:15.209Z,70.00
2018-03-21T00:03:50.930Z,70.00
2018-03-21T00:06:25.143Z,69.80
2018-03-21T00:09:00.186Z,70.00
2018-03-21T00:11:34.540Z,70.70
2018-03-21T00:14:08.698Z,70.60
2018-03-21T00:16:42.841Z,70.10
2018-03-21T00:19:17.307Z,70.30
2018-03-21T00:21:51.304Z,70.10
2018-03-21T00:24:25.293Z,70.00
2018-03-21T00:26:59.734Z,70.20
2018-03-21T00:29:34.156Z,69.70
2018-03-21T00:32:08.018Z,69.30
2018-03-21T00:34:42.114Z,69.40
2018-03-21T00:37:17.063Z,68.80
2018-03-21T00:39:51.566Z,68.80
2018-03-21T00:42:26.410Z,69.20
2018-03-21T00:45:01.183Z,70.30
2018-03-21T00:47:36.477Z,70.40
2018-03-21T00:50:10.839Z,69.40
2018-03-21T00:52:45.303Z,68.70
2018-03-21T00:55:19.779Z,68.40
2018-03-21T00:57:54.275Z,67.80
2018-03-21T01:00:28.961Z,67.90
2018-03-21T01:03:03.650Z,67.90
2018-03-21T01:05:37.653Z,67.90
2018-03-21T01:08:11.419Z,68.50
2018-03-21T01:10:45.686Z,68.10
2018-03-21T01:13:19.781Z,68.30
2018-03-21T01:15:53.694Z,67.70
2018-03-21T01:18:28.520Z,67.30
2018-03-21T01:21:03.565Z,67.50
2018-03-21T01:23:38.150Z,67.60
2018-03-21T01:26:12.008Z,67.80
2018-03-21T01:28:47.210Z,67.30
2018-03-21T01:31:21.650Z,67.30
2018-03-21T01:33:55.697Z,68.00
2018-03-21T01:36:30.045Z,66.90
2018-03-21T01:39:05.185Z,66.30
2018-03-21T01:41:39.838Z,66.20
2018-03-21T01:44:14.733Z,65.80
2018-03-21T01:46:50.215Z,66.30
2018-03-21T01:49:24.328Z,66.20
2018-03-21T01:51:59.365Z,66.90
2018-03-21T01:54:34.177Z,66.80
2018-03-21T01:57:08.868Z,66.80
2018-03-21T01:59:44.536Z,67.30
2018-03-21T02:02:18.899Z,67.20
2018-03-21T02:04:53.644Z,67.40
2018-03-21T02:07:27.642Z,67.50
2018-03-21T02:10:01.706Z,67.30
2018-03-21T02:12:36.906Z,66.90
2018-03-21T02:15:10.581Z,66.90
2018-03-21T02:17:44.583Z,67.10
2018-03-21T02:20:19.182Z,66.70
2018-03-21T02:22:53.222Z,67.00
2018-03-21T02:25:27.874Z,67.30
2018-03-21T02:28:02.583Z,68.00
2018-03-21T02:30:36.685Z,67.60
2018-03-21T02:33:11.219Z,67.40
2018-03-21T02:35:45.021Z,67.40
2018-03-21T02:38:19.163Z,67.40
2018-03-21T02:40:52.769Z,67.20
2018-03-21T02:43:26.886Z,67.70
2018-03-21T02:46:00.746Z,67.80
2018-03-21T02:48:36.497Z,67.70
2018-03-21T02:51:11.034Z,67.70
2018-03-21T02:53:45.570Z,68.20
2018-03-21T02:56:19.413Z,68.10
2018-03-21T02:58:53.522Z,68.30
2018-03-21T03:01:27.840Z,68.90
2018-03-21T03:04:02.211Z,69.90
2018-03-21T03:06:36.911Z,70.40
2018-03-21T03:09:11.350Z,70.40
2018-03-21T03:11:46.770Z,70.40
2018-03-21T03:14:21.316Z,70.20
2018-03-21T03:16:55.905Z,68.50
2018-03-21T03:19:31.694Z,68.20
2018-03-21T03:22:06.692Z,69.40
2018-03-21T03:24:41.055Z,69.40
2018-03-21T03:27:14.726Z,68.30
2018-03-21T03:29:49.507Z,68.20
2018-03-21T03:32:23.384Z,68.10
2018-03-21T03:34:57.184Z,68.40
2018-03-21T03:37:30.936Z,69.30
2018-03-21T03:40:05.128Z,69.20
2018-03-21T03:42:39.899Z,68.70
2018-03-21T03:45:14.635Z,68.70
2018-03-21T03:47:49.206Z,68.40
2018-03-21T03:50:23.932Z,69.60
2018-03-21T03:52:57.682Z,69.60
2018-03-21T03:55:32.957Z,69.80
2018-03-21T03:58:07.283Z,69.80
2018-03-21T04:00:41.894Z,70.00
2018-03-21T04:03:17.123Z,70.60
2018-03-21T04:05:52.578Z,71.20
2018-03-21T04:08:27.412Z,70.90
2018-03-21T04:11:01.161Z,70.70
2018-03-21T04:13:35.765Z,70.50
2018-03-21T04:16:10.617Z,70.70
2018-03-21T04:18:45.273Z,70.40
2018-03-21T04:21:20.846Z,70.60
2018-03-21T04:23:56.193Z,70.30
2018-03-21T04:26:29.973Z,70.20
2018-03-21T04:29:05.225Z,70.90
2018-03-21T04:31:40.466Z,70.80
2018-03-21T04:34:14.662Z,70.80
2018-03-21T04:36:49.026Z,70.90
2018-03-21T04:39:23.436Z,70.70
2018-03-21T04:41:57.541Z,70.60
2018-03-21T04:44:32.170Z,70.10
2018-03-21T04:47:07.599Z,70.30
2018-03-21T04:49:42.851Z,70.00
2018-03-21T04:52:17.372Z,70.00
2018-03-21T04:54:52.005Z,69.80
2018-03-21T04:57:26.303Z,69.70
2018-03-21T05:00:00.944Z,69.60
2018-03-21T05:02:35.155Z,69.50
2018-03-21T05:05:09.186Z,69.20
2018-03-21T05:07:43.375Z,68.90
2018-03-21T05:10:18.585Z,68.80
2018-03-21T05:12:52.641Z,68.40
2018-03-21T05:15:27.348Z,67.60
2018-03-21T05:18:02.380Z,67.60
2018-03-21T05:20:36.678Z,67.50
2018-03-21T05:23:11.175Z,67.90
2018-03-21T05:25:45.199Z,67.80
2018-03-21T05:28:19.966Z,66.80
2018-03-21T05:30:54.481Z,66.70
2018-03-21T05:33:29.014Z,66.70
2018-03-21T05:36:03.739Z,66.30
2018-03-21T05:38:37.690Z,65.90
2018-03-21T05:41:12.130Z,65.70
2018-03-21T05:43:46.117Z,65.10
2018-03-21T05:46:20.157Z,65.00
2018-03-21T05:48:54.450Z,65.60
2018-03-21T05:51:29.839Z,66.00
2018-03-21T05:54:05.493Z,66.00
2018-03-21T05:56:39.725Z,66.30
2018-03-21T05:59:14.436Z,65.20
2018-03-21T06:01:49.894Z,65.50
2018-03-21T06:04:23.783Z,65.40
2018-03-21T06:06:58.677Z,65.80
2018-03-21T06:09:32.707Z,65.70
2018-03-21T06:12:07.130Z,65.70
2018-03-21T06:14:41.332Z,65.90
2018-03-21T06:17:15.358Z,66.10
2018-03-21T06:19:49.630Z,64.90
2018-03-21T06:22:23.492Z,64.40
2018-03-21T06:24:57.508Z,64.50
2018-03-21T06:27:32.145Z,64.80
2018-03-21T06:30:06.663Z,64.80
2018-03-21T06:32:40.775Z,64.80
2018-03-21T06:35:14.998Z,64.60
2018-03-21T06:37:50.225Z,63.80
2018-03-21T06:40:24.966Z,63.00
2018-03-21T06:42:59.678Z,62.90
2018-03-21T06:45:33.813Z,62.80
2018-03-21T06:48:08.227Z,63.70
2018-03-21T06:50:42.027Z,64.00
2018-03-21T06:53:16.502Z,62.10
2018-03-21T06:55:50.501Z,62.10
2018-03-21T06:58:24.318Z,61.20
2018-03-21T07:00:59.076Z,59.80
2018-03-21T07:03:33.059Z,59.80
2018-03-21T07:06:07.082Z,58.70
2018-03-21T07:08:40.882Z,59.40
2018-03-21T07:11:14.600Z,59.30
2018-03-21T07:14:00.493Z,58.70
2018-03-21T07:16:46.632Z,58.80
2018-03-21T07:19:21.174Z,58.30
2018-03-21T07:21:55.774Z,57.30
2018-03-21T07:24:30.190Z,57.00
2018-03-21T07:27:05.098Z,57.90
2018-03-21T07:29:40.407Z,56.80
2018-03-21T07:32:14.648Z,56.70
2018-03-21T07:34:49.049Z,56.20
2018-03-21T07:37:23.021Z,56.20
2018-03-21T07:39:56.840Z,55.80
2018-03-21T07:42:32.433Z,56.00
2018-03-21T07:45:06.475Z,55.90
2018-03-21T07:47:40.229Z,55.70
2018-03-21T07:50:14.066Z,55.40
2018-03-21T07:52:47.961Z,55.20
2018-03-21T07:55:23.255Z,55.00
2018-03-21T07:57:57.274Z,55.00
2018-03-21T08:00:31.793Z,53.90
2018-03-21T08:03:06.049Z,53.90
2018-03-21T08:05:40.473Z,54.40
2018-03-21T08:08:14.456Z,54.60
2018-03-21T08:10:48.299Z,53.90
2018-03-21T08:13:22.400Z,54.60
2018-03-21T08:15:56.816Z,53.30
2018-03-21T08:18:31.342Z,51.50
2018-03-21T08:21:05.459Z,51.50
2018-03-21T08:23:40.597Z,52.10
2018-03-21T08:26:14.705Z,52.10
2018-03-21T08:28:48.583Z,52.00
2018-03-21T08:31:22.167Z,51.70
2018-03-21T08:33:55.936Z,52.00
2018-03-21T08:36:29.718Z,51.20
2018-03-21T08:39:03.565Z,50.60
2018-03-21T08:41:37.223Z,50.40
2018-03-21T08:44:11.157Z,49.90
2018-03-21T08:46:45.711Z,50.60
2018-03-21T08:49:19.779Z,50.20
2018-03-21T08:51:54.218Z,49.30
2018-03-21T08:54:29.625Z,49.40
2018-03-21T08:57:03.778Z,49.30
2018-03-21T08:59:38.182Z,48.80
2018-03-21T09:02:12.166Z,48.70
2018-03-21T09:04:46.800Z,48.40
2018-03-21T09:07:20.820Z,48.30
2018-03-21T09:09:55.037Z,48.90
2018-03-21T09:12:29.498Z,47.80
2018-03-21T09:15:03.301Z,46.90
2018-03-21T09:17:37.109Z,47.00
2018-03-21T09:20:10.859Z,45.10
2018-03-21T09:22:44.585Z,45.60
2018-03-21T09:25:18.453Z,45.60
2018-03-21T09:27:52.197Z,46.10
2018-03-21T09:30:26.991Z,47.20
2018-03-21T09:33:00.778Z,47.00
2018-03-21T09:35:35.198Z,46.30
2018-03-21T09:38:09.044Z,46.40
2018-03-21T09:40:43.682Z,45.60
2018-03-21T09:43:18.469Z,45.70
2018-03-21T09:45:52.460Z,45.70
2018-03-21T09:48:26.205Z,45.10
2018-03-21T09:51:00.059Z,45.30
2018-03-21T09:53:35.422Z,45.00
2018-03-21T09:56:09.413Z,44.80
2018-03-21T09:58:43.221Z,41.30
2018-03-21T10:01:18.121Z,39.60
2018-03-21T10:03:53.407Z,38.60
2018-03-21T10:06:27.472Z,38.60
2018-03-21T10:09:01.762Z,39.30
2018-03-21T10:58:22.067Z,38.30
2018-03-21T11:00:56.415Z,33.40
2018-03-21T11:03:31.246Z,32.90
2018-03-21T11:06:05.324Z,32.90
2018-03-21T11:08:39.042Z,33.70
2018-03-21T11:11:13.619Z,34.00
2018-03-21T11:13:47.786Z,33.30
2018-03-21T11:16:22.970Z,30.20
2018-03-21T11:18:57.221Z,30.10
2018-03-21T11:21:31.746Z,30.90
2018-03-21T11:24:05.648Z,32.90
2018-03-21T11:26:40.405Z,31.60
2018-03-21T11:29:14.277Z,31.70
2018-03-21T11:31:48.659Z,32.20
2018-03-21T11:34:22.835Z,32.10
2018-03-21T11:36:57.314Z,32.30
2018-03-21T11:39:31.619Z,32.20
2018-03-21T11:42:06.188Z,30.80
2018-03-21T11:44:39.924Z,30.90
2018-03-21T11:47:13.658Z,30.30
2018-03-21T11:49:47.801Z,30.30
2018-03-21T11:52:22.374Z,29.30
2018-03-21T11:54:57.225Z,29.40
2018-03-21T11:57:31.039Z,29.40
2018-03-21T12:00:04.934Z,29.80
2018-03-21T12:02:38.537Z,30.60
2018-03-21T12:05:12.402Z,31.60
2018-03-21T12:07:47.102Z,26.80
2018-03-21T12:10:22.033Z,25.70
2018-03-21T12:12:56.458Z,25.70
2018-03-21T12:15:31.089Z,31.20
2018-03-21T12:18:05.025Z,31.20
2018-03-21T12:20:39.107Z,31.60
2018-03-21T12:23:13.732Z,31.90
2018-03-21T12:25:48.444Z,28.30
2018-03-21T12:28:22.352Z,28.20
2018-03-21T12:30:56.581Z,27.80
2018-03-21T12:33:30.803Z,27.50
2018-03-21T12:36:04.652Z,26.40
2018-03-21T12:38:39.306Z,24.00
2018-03-21T12:41:13.269Z,23.90
2018-03-21T12:43:46.991Z,21.80
2018-03-21T12:46:21.606Z,23.90
2018-03-21T12:48:55.330Z,25.70
2018-03-21T12:51:29.217Z,27.80
2018-03-21T12:54:04.583Z,28.60
2018-03-21T12:56:38.565Z,28.60
2018-03-21T12:59:12.268Z,29.00
2018-03-21T13:01:46.310Z,28.90
2018-03-21T13:04:20.003Z,27.20
2018-03-21T13:06:54.269Z,24.30
2018-03-21T13:09:28.101Z,23.90
2018-03-21T13:12:02.331Z,26.40
2018-03-21T13:14:37.078Z,34.60
2018-03-21T13:17:11.172Z,34.60
2018-03-21T13:19:44.964Z,34.10
2018-03-21T13:22:19.252Z,33.40
2018-03-21T13:24:53.665Z,31.00
2018-03-21T13:27:27.510Z,31.90
2018-03-21T13:30:01.216Z,33.60
2018-03-21T13:32:34.974Z,34.40
2018-03-21T13:35:09.604Z,34.20
2018-03-21T13:37:43.618Z,32.70
2018-03-21T13:40:18.950Z,33.50
2018-03-21T13:42:52.994Z,33.50
2018-03-21T13:45:26.632Z,32.80
2018-03-21T13:48:00.402Z,33.30
2018-03-21T13:50:34.182Z,32.60
2018-03-21T13:53:08.809Z,32.20
2018-03-21T13:55:42.638Z,32.20
2018-03-21T13:58:16.482Z,32.00
2018-03-21T14:00:50.917Z,33.30
2018-03-21T14:03:25.772Z,30.90
2018-03-21T14:05:59.493Z,30.90
2018-03-21T14:08:33.270Z,30.90
2018-03-21T14:11:07.077Z,30.20
2018-03-21T14:13:40.898Z,30.50
2018-03-21T14:16:14.569Z,31.20
2018-03-21T14:18:48.846Z,31.10
2018-03-21T14:21:23.164Z,30.00
2018-03-21T14:23:58.345Z,29.90
2018-03-21T14:26:32.423Z,29.80
2018-03-21T14:29:06.346Z,29.40
2018-03-21T14:31:40.087Z,29.30
2018-03-21T14:34:14.034Z,28.70
2018-03-21T14:36:47.797Z,29.00
2018-03-21T14:39:21.825Z,28.30
2018-03-21T14:41:55.625Z,26.80
2018-03-21T14:44:29.606Z,26.20
2018-03-21T14:47:04.006Z,26.20
2018-03-21T14:49:38.090Z,26.20
2018-03-21T14:52:12.699Z,26.20
2018-03-21T14:54:47.146Z,25.40
2018-03-21T14:57:21.343Z,25.10
2018-03-21T14:59:55.113Z,25.80
2018-03-21T15:02:30.537Z,25.70
2018-03-21T15:05:05.514Z,24.30
2018-03-21T15:07:40.221Z,23.40
2018-03-21T15:10:14.406Z,23.30
2018-03-21T15:12:48.863Z,23.70
2018-03-21T15:15:23.174Z,24.50
2018-03-21T15:17:57.393Z,24.60
2018-03-21T15:20:31.310Z,25.50
2018-03-21T15:23:06.670Z,26.80
2018-03-21T15:25:41.163Z,26.80
2018-03-21T15:28:16.464Z,26.60
2018-03-21T15:30:51.537Z,25.60
2018-03-21T15:33:26.441Z,26.00
2018-03-21T15:36:00.578Z,26.00
2018-03-21T15:38:35.006Z,26.70
2018-03-21T15:41:09.941Z,27.10
2018-03-21T15:43:44.641Z,27.20
2018-03-21T15:46:18.655Z,27.20
2018-03-21T15:48:53.061Z,25.80
2018-03-21T15:51:27.003Z,25.80
2018-03-21T15:54:01.477Z,26.10
2018-03-21T15:56:36.294Z,26.70
2018-03-21T15:59:11.033Z,26.70
2018-03-21T16:01:45.160Z,26.40
2018-03-21T16:04:19.508Z,25.40
2018-03-21T16:06:53.424Z,26.00
2018-03-21T16:09:27.831Z,26.50
2018-03-21T16:12:01.516Z,25.80
2018-03-21T16:14:35.208Z,26.20
2018-03-21T16:17:09.724Z,25.80
2018-03-21T16:19:43.567Z,25.60
2018-03-21T16:22:17.581Z,25.20
2018-03-21T16:24:52.117Z,25.20
2018-03-21T16:27:26.022Z,25.50
2018-03-21T16:30:00.648Z,25.40
2018-03-21T16:32:34.482Z,25.60
2018-03-21T16:35:08.272Z,26.20
2018-03-21T16:37:43.054Z,25.70
2018-03-21T16:40:16.866Z,25.70
2018-03-21T16:42:50.748Z,25.30
2018-03-21T16:45:25.280Z,25.80
2018-03-21T16:47:59.429Z,25.70
2018-03-21T16:50:34.663Z,26.50
2018-03-21T16:53:08.833Z,26.50
2018-03-21T16:55:43.352Z,26.60
2018-03-21T16:58:18.049Z,28.10
2018-03-21T17:00:52.157Z,28.10
2018-03-21T17:03:26.308Z,28.40
2018-03-21T17:06:01.471Z,26.40
2018-03-21T17:08:36.302Z,26.40
2018-03-21T17:11:10.090Z,26.10
2018-03-21T17:13:43.986Z,26.40
2018-03-21T17:16:18.593Z,26.80
2018-03-21T17:18:52.884Z,26.70
2018-03-21T17:21:27.279Z,26.10
2018-03-21T17:24:01.030Z,26.30
2018-03-21T17:26:34.806Z,26.50
2018-03-21T17:29:08.597Z,26.70
2018-03-21T17:31:42.997Z,27.20
2018-03-21T17:34:16.923Z,26.60
2018-03-21T17:36:50.682Z,27.10
2018-03-21T17:39:24.938Z,27.60
2018-03-21T17:41:59.358Z,27.60
2018-03-21T17:44:34.054Z,27.40
2018-03-21T17:47:08.020Z,27.20
2018-03-21T17:49:41.769Z,27.00
2018-03-21T17:52:15.518Z,27.50
2018-03-21T17:54:49.568Z,27.30
2018-03-21T17:57:23.609Z,26.70
2018-03-21T17:59:57.745Z,27.30
2018-03-21T18:02:32.085Z,27.30
2018-03-21T18:05:05.888Z,27.20
2018-03-21T18:07:40.374Z,27.20
2018-03-21T18:10:14.362Z,27.20
2018-03-21T18:12:48.804Z,27.20
2018-03-21T18:15:22.965Z,27.20
2018-03-21T18:17:57.537Z,27.70
2018-03-21T18:20:31.326Z,28.30
2018-03-21T18:23:05.329Z,28.00
2018-03-21T18:25:40.228Z,28.70
2018-03-21T18:28:14.958Z,28.40
2018-03-21T18:30:48.798Z,28.40
2018-03-21T18:33:23.452Z,28.70
2018-03-21T18:35:57.657Z,28.40
2018-03-21T18:38:32.116Z,28.50
2018-03-21T18:41:05.879Z,29.90
2018-03-21T18:43:39.628Z,28.80
2018-03-21T18:46:14.896Z,29.00
2018-03-21T18:48:49.217Z,29.80
2018-03-21T18:51:23.820Z,30.70
2018-03-21T18:53:57.753Z,30.70
2018-03-21T18:56:32.676Z,33.30
2018-03-21T18:59:07.058Z,31.40
2018-03-21T19:01:41.438Z,31.30
2018-03-21T19:04:15.331Z,31.60
2018-03-21T19:06:49.528Z,32.80
2018-03-21T19:09:23.897Z,33.40
2018-03-21T19:11:58.250Z,32.90
2018-03-21T19:14:32.485Z,33.80
2018-03-21T19:17:06.646Z,33.60
2018-03-21T19:19:40.751Z,33.70
2018-03-21T19:22:16.074Z,34.20
2018-03-21T19:24:53.137Z,34.80
2018-03-21T19:27:27.850Z,35.70
2018-03-21T19:30:42.241Z,35.40
2018-03-21T19:47:38.767Z,37.80
2018-03-21T19:50:35.002Z,38.10
2018-03-21T20:59:17.687Z,40.50
2018-03-21T23:56:28.173Z,40.60
2018-03-21T23:59:02.811Z,52.10
